Time;durP1;ratioP1;P1;durP2;ratioP2;P2;SDS_P1;SDS_P2;PMS_P1;PMS_P2;Temp;Humidity;BMP_temperature;BMP_pressure;BME280_temperature;BME280_humidity;BME280_pressure;Samples;Min_cycle;Max_cycle;Signal;HPM_P1;HPM_P2
2021/11/27 00:01:42;;;;;;;2.97;1.30;;;6.10;99.90;;;4.04;100.00;97372.47;5029406;28;20055;-88
2021/11/27 00:04:10;;;;;;;3.47;1.20;;;6.10;99.90;;;4.04;100.00;97377.03;5032531;28;20045;-88
2021/11/27 00:06:37;;;;;;;2.50;1.20;;;6.10;99.90;;;4.05;100.00;97371.41;5045637;28;20116;-88
2021/11/27 00:09:07;;;;;;;3.08;1.40;;;6.10;99.90;;;4.09;100.00;97374.47;5049476;28;20049;-88
2021/11/27 00:11:34;;;;;;;3.50;1.58;;;6.10;99.90;;;4.06;100.00;97362.31;5064569;28;20665;-89
2021/11/27 00:14:02;;;;;;;3.28;1.50;;;6.20;99.90;;;4.09;100.00;97361.03;5047079;28;20091;-88
2021/11/27 00:16:31;;;;;;;5.20;1.50;;;6.20;99.90;;;4.10;100.00;97360.81;5047484;28;20119;-88
2021/11/27 00:18:59;;;;;;;2.88;1.40;;;6.20;99.90;;;4.08;100.00;97362.09;5047901;28;20102;-89
2021/11/27 00:21:27;;;;;;;3.72;1.70;;;6.20;99.90;;;4.08;100.00;97351.31;5049138;28;20065;-88
2021/11/27 00:23:55;;;;;;;4.10;1.60;;;6.20;99.90;;;4.13;100.00;97356.84;5048538;28;20113;-88
2021/11/27 00:26:24;;;;;;;6.65;1.63;;;6.20;99.90;;;4.11;100.00;97350.88;5048439;28;20087;-89
2021/11/27 00:28:52;;;;;;;5.10;1.88;;;6.20;99.90;;;4.09;100.00;97344.88;5047448;28;20071;-87
2021/11/27 00:31:24;;;;;;;6.72;1.88;;;6.20;99.90;;;4.10;100.00;97351.94;5047703;28;20148;-88
2021/11/27 00:33:54;;;;;;;8.77;1.90;;;6.20;99.90;;;4.15;100.00;97349.41;5045079;28;20056;-88
2021/11/27 00:36:22;;;;;;;5.03;2.08;;;6.20;99.90;;;4.14;100.00;97352.31;5046283;28;20079;-89
2021/11/27 00:38:49;;;;;;;5.32;1.80;;;6.20;99.90;;;4.18;100.00;97350.81;5048784;28;20524;-89
2021/11/27 00:41:17;;;;;;;3.85;1.70;;;6.20;99.90;;;4.17;100.00;97344.63;5046767;28;20687;-88
2021/11/27 00:43:45;;;;;;;3.92;1.55;;;6.20;99.90;;;4.17;100.00;97355.38;5048339;28;20044;-88
2021/11/27 00:46:13;;;;;;;4.32;1.85;;;6.20;99.90;;;4.15;100.00;97352.09;5048060;28;20043;-87
2021/11/27 00:48:41;;;;;;;4.07;1.85;;;6.20;99.90;;;4.15;100.00;97341.34;5048651;28;20090;-88
2021/11/27 00:51:13;;;;;;;8.95;2.20;;;6.20;99.90;;;4.19;100.00;97347.91;5048488;28;20056;-89
2021/11/27 00:53:44;;;;;;;3.88;2.10;;;6.30;99.90;;;4.21;100.00;97351.19;5047090;28;20056;-88
2021/11/27 00:56:14;;;;;;;4.80;1.98;;;6.30;99.90;;;4.22;100.00;97352.00;5046577;28;20045;-88
2021/11/27 00:58:41;;;;;;;4.03;1.90;;;6.30;99.90;;;4.19;100.00;97344.38;5047202;28;20493;-89
2021/11/27 01:01:13;;;;;;;4.60;1.88;;;6.30;99.90;;;4.21;100.00;97358.47;5047090;28;20079;-88
2021/11/27 01:03:42;;;;;;;4.68;1.90;;;6.30;99.90;;;4.22;100.00;97347.44;5047140;28;20067;-88
2021/11/27 01:06:13;;;;;;;3.90;1.90;;;6.20;99.90;;;4.21;100.00;97353.91;5046028;28;20072;-89
2021/11/27 01:08:41;;;;;;;4.47;1.98;;;6.30;99.90;;;4.21;100.00;97351.19;5047088;28;20044;-89
2021/11/27 01:11:14;;;;;;;5.07;2.15;;;6.30;99.90;;;4.21;100.00;97353.06;5045089;28;20041;-88
2021/11/27 01:13:45;;;;;;;3.20;1.75;;;6.30;99.90;;;4.22;100.00;97360.09;5047145;28;20044;-88
2021/11/27 01:16:14;;;;;;;3.42;1.65;;;6.30;99.90;;;4.22;100.00;97357.41;5062869;28;20131;-89
2021/11/27 01:18:41;;;;;;;4.82;1.80;;;6.30;99.90;;;4.23;100.00;97349.09;5044894;28;20098;-88
2021/11/27 01:21:13;;;;;;;3.38;1.63;;;6.30;99.90;;;4.23;100.00;97349.09;5043618;28;20045;-88
2021/11/27 01:23:43;;;;;;;3.67;1.50;;;6.30;99.90;;;4.24;100.00;97344.53;5029318;28;20049;-88
2021/11/27 01:26:12;;;;;;;3.83;1.70;;;6.30;99.90;;;4.24;100.00;97342.66;5062922;28;20072;-88
2021/11/27 01:28:40;;;;;;;4.38;2.00;;;6.30;99.90;;;4.23;100.00;97345.59;5046921;28;20068;-88
2021/11/27 01:31:08;;;;;;;3.70;1.60;;;6.30;99.90;;;4.24;100.00;97361.50;5045135;28;20073;-88
2021/11/27 01:33:36;;;;;;;2.83;1.33;;;6.30;99.90;;;4.22;100.00;97357.41;5045887;28;20045;-88
2021/11/27 01:36:06;;;;;;;6.95;1.80;;;6.30;99.90;;;4.23;100.00;97364.44;5046574;28;20460;-88
2021/11/27 01:38:36;;;;;;;3.80;1.75;;;6.30;99.90;;;4.25;100.00;97356.97;5063571;28;20053;-88
2021/11/27 01:41:05;;;;;;;3.00;1.50;;;6.20;99.90;;;4.23;100.00;97359.06;5046933;28;20920;-88
2021/11/27 01:43:35;;;;;;;3.38;1.50;;;6.20;99.90;;;4.25;100.00;97349.72;5046744;28;20132;-89
2021/11/27 01:46:03;;;;;;;2.97;1.52;;;6.30;99.90;;;4.21;100.00;97351.19;5060863;28;20064;-88
2021/11/27 01:48:31;;;;;;;3.22;1.40;;;6.30;99.90;;;4.20;100.00;97354.09;5046627;28;20083;-88
2021/11/27 01:51:04;;;;;;;3.75;1.55;;;6.30;99.90;;;4.20;100.00;97357.63;5046575;28;20055;-89
2021/11/27 01:53:37;;;;;;;3.50;1.63;;;6.30;99.90;;;4.22;100.00;97352.81;5049542;28;20053;-88
2021/11/27 01:56:11;;;;;;;4.28;1.80;;;6.30;99.90;;;4.23;100.00;97362.56;5050264;28;20076;-88
2021/11/27 01:58:39;;;;;;;3.53;1.65;;;6.30;99.90;;;4.20;100.00;97351.41;5050432;28;20049;-88
2021/11/27 02:01:11;;;;;;;5.38;1.58;;;6.30;99.90;;;4.20;100.00;97349.53;5066932;28;20041;-88
2021/11/27 02:03:40;;;;;;;4.38;2.03;;;6.30;99.90;;;4.22;100.00;97352.81;5050321;28;20045;-88
2021/11/27 02:06:19;;;;;;;4.93;1.70;;;6.30;99.90;;;4.19;100.00;97357.81;5049999;28;20103;-88
2021/11/27 02:08:50;;;;;;;3.30;1.50;;;6.30;99.90;;;4.17;100.00;97360.78;5050208;28;20049;-88
2021/11/27 02:11:24;;;;;;;3.00;1.52;;;6.30;99.90;;;4.17;100.00;97352.69;5049983;28;20466;-88
2021/11/27 02:13:51;;;;;;;4.43;1.70;;;6.20;99.90;;;4.14;100.00;97355.81;5049965;28;20518;-88
2021/11/27 02:16:19;;;;;;;5.13;1.60;;;6.20;99.90;;;4.13;100.00;97362.22;5049649;28;20041;-88
2021/11/27 02:18:47;;;;;;;4.85;1.55;;;6.30;99.90;;;4.14;100.00;97360.38;5049774;28;20045;-88
2021/11/27 02:21:19;;;;;;;3.95;1.60;;;6.20;99.90;;;4.17;100.00;97360.78;5051024;28;20045;-89
2021/11/27 02:23:49;;;;;;;4.53;1.88;;;6.20;99.90;;;4.17;100.00;97359.91;5049786;28;20049;-89
2021/11/27 02:26:23;;;;;;;4.30;1.57;;;6.20;99.90;;;4.13;100.00;97351.47;5049389;28;20056;-88
2021/11/27 02:28:57;;;;;;;3.72;1.73;;;6.20;99.90;;;4.11;100.00;97348.16;5049684;28;20049;-87
2021/11/27 02:31:24;;;;;;;3.25;1.70;;;6.20;99.90;;;4.09;100.00;97348.41;5049505;28;20072;-88
2021/11/27 02:33:55;;;;;;;3.38;1.52;;;6.20;99.90;;;4.12;100.00;97347.16;5046090;28;20049;-88
2021/11/27 02:36:25;;;;;;;5.05;1.65;;;6.20;99.90;;;4.10;100.00;97339.28;5029410;28;20042;-88
2021/11/27 02:38:54;;;;;;;2.90;1.40;;;6.20;99.90;;;4.06;100.00;97339.97;5029552;28;20049;-89
2021/11/27 02:41:21;;;;;;;3.13;1.42;;;6.20;99.90;;;4.08;100.00;97344.06;5054761;28;20517;-89
2021/11/27 02:43:49;;;;;;;4.55;1.33;;;6.20;99.90;;;4.09;100.00;97337.66;5049337;28;20037;-88
2021/11/27 02:46:17;;;;;;;3.80;1.40;;;6.20;99.90;;;4.09;100.00;97337.66;5050424;28;20133;-88
2021/11/27 02:48:44;;;;;;;4.10;1.58;;;6.20;99.90;;;4.10;100.00;97339.28;5030746;28;20107;-88
2021/11/27 02:51:12;;;;;;;3.05;1.38;;;6.20;99.90;;;4.11;100.00;97340.09;5030599;28;20073;-88
2021/11/27 02:53:42;;;;;;;4.38;1.67;;;6.20;99.90;;;4.12;100.00;97341.75;5029080;28;20426;-87
2021/11/27 02:56:09;;;;;;;3.90;1.75;;;6.20;99.90;;;4.11;100.00;97334.72;5030364;28;20052;-88
2021/11/27 02:58:38;;;;;;;3.40;1.70;;;6.20;99.90;;;4.14;100.00;97328.09;5045700;28;20575;-88
2021/11/27 03:01:08;;;;;;;4.10;2.20;;;6.30;99.90;;;4.15;100.00;97335.94;5028967;28;20060;-87
2021/11/27 03:03:36;;;;;;;3.92;2.00;;;6.20;99.90;;;4.17;100.00;97341.94;5045114;28;20614;-88
2021/11/27 03:06:04;;;;;;;3.42;1.92;;;6.20;99.90;;;4.18;100.00;97346.25;5028748;28;20053;-88
2021/11/27 03:08:32;;;;;;;5.30;2.10;;;6.20;99.90;;;4.20;100.00;97338.78;5045897;28;20372;-88
2021/11/27 03:11:01;;;;;;;4.47;2.00;;;6.20;99.90;;;4.16;100.00;97334.06;5030340;28;20041;-88
2021/11/27 03:13:30;;;;;;;4.75;2.15;;;6.20;99.90;;;4.17;100.00;97339.25;5051961;28;20469;-89
2021/11/27 03:15:58;;;;;;;3.65;2.05;;;6.20;99.90;;;4.17;100.00;97331.16;5028500;28;20061;-88
2021/11/27 03:18:25;;;;;;;5.05;2.40;;;6.20;99.90;;;4.19;100.00;97339.84;5028852;28;20073;-88
2021/11/27 03:20:54;;;;;;;4.43;2.40;;;6.20;99.90;;;4.19;100.00;97337.16;5028796;28;20456;-88
2021/11/27 03:23:23;;;;;;;6.90;2.55;;;6.20;99.90;;;4.22;100.00;97347.44;5028711;28;20081;-88
2021/11/27 03:25:50;;;;;;;4.13;2.08;;;6.30;99.90;;;4.22;100.00;97347.44;5037254;28;20395;-88
2021/11/27 03:28:19;;;;;;;3.55;1.92;;;6.30;99.90;;;4.21;100.00;97348.50;5045145;28;20053;-89
2021/11/27 03:30:47;;;;;;;5.70;2.65;;;6.30;99.90;;;4.19;100.00;97352.44;5029850;28;20072;-87
2021/11/27 03:33:16;;;;;;;4.20;2.03;;;6.30;99.90;;;4.15;100.00;97352.09;5048184;28;20072;-89
2021/11/27 03:35:43;;;;;;;6.82;2.50;;;6.30;99.90;;;4.17;100.00;97360.78;5049401;28;20041;-89
2021/11/27 03:38:12;;;;;;;4.82;2.20;;;6.30;99.90;;;4.17;100.00;97362.63;5048274;28;20360;-88
2021/11/27 03:40:40;;;;;;;4.50;2.17;;;6.30;99.90;;;4.19;100.00;97363.22;5048078;28;20081;-88
2021/11/27 03:43:08;;;;;;;4.50;2.00;;;6.30;99.90;;;4.20;100.00;97370.25;5047655;28;20045;-88
2021/11/27 03:45:37;;;;;;;6.65;2.42;;;6.30;99.90;;;4.17;100.00;97376.91;5047393;28;20044;-88
2021/11/27 03:48:11;;;;;;;3.80;2.10;;;6.30;99.90;;;4.17;100.00;97366.16;5044233;28;20049;-89
2021/11/27 03:51:02;;;;;;;4.47;2.42;;;6.30;99.90;;;4.17;100.00;97381.44;5041700;28;20418;-88
2021/11/27 03:53:34;;;;;;;4.15;2.30;;;6.30;99.90;;;4.16;100.00;97380.63;5047951;28;20045;-87
2021/11/27 03:56:08;;;;;;;7.05;3.70;;;6.30;99.90;;;4.16;100.00;97391.41;5047806;28;20056;-87
2021/11/27 03:58:36;;;;;;;6.05;4.00;;;6.30;99.90;;;4.15;100.00;97388.94;5049181;28;20064;-88
2021/11/27 04:01:09;;;;;;;8.77;5.90;;;6.30;99.90;;;4.07;100.00;97388.19;5047623;28;20052;-88
2021/11/27 04:03:38;;;;;;;9.88;6.30;;;6.30;99.90;;;3.90;100.00;97397.81;5047728;28;20071;-88
2021/11/27 04:06:06;;;;;;;9.60;6.10;;;6.20;99.90;;;3.81;100.00;97399.97;5047355;28;20053;-88
2021/11/27 04:08:34;;;;;;;8.68;5.60;;;6.20;99.90;;;3.77;100.00;97406.84;5047836;28;20037;-88
2021/11/27 04:11:03;;;;;;;7.60;4.82;;;6.10;99.90;;;3.70;100.00;97404.19;5047638;28;20049;-88
2021/11/27 04:13:31;;;;;;;8.00;5.07;;;6.00;99.90;;;3.70;100.00;97409.56;5047594;28;20045;-88
2021/11/27 04:15:59;;;;;;;8.18;5.00;;;6.00;99.90;;;3.59;100.00;97417.50;5046430;28;20044;-88
2021/11/27 04:18:28;;;;;;;8.40;4.68;;;5.90;99.90;;;3.48;100.00;97427.91;5048941;28;20068;-88
2021/11/27 04:20:55;;;;;;;6.75;4.13;;;5.80;99.90;;;3.40;100.00;97420.06;5047507;28;20052;-88
2021/11/27 04:23:23;;;;;;;6.95;4.38;;;5.80;99.90;;;3.31;100.00;97421.38;5044172;28;20091;-88
2021/11/27 04:25:54;;;;;;;7.63;4.50;;;5.70;99.90;;;3.25;100.00;97427.59;5027293;28;20049;-89
2021/11/27 04:28:21;;;;;;;7.93;4.85;;;5.70;99.90;;;3.18;100.00;97440.22;5044007;28;20468;-88
2021/11/27 04:30:49;;;;;;;6.88;4.03;;;5.60;99.90;;;3.13;100.00;97439.03;5027257;28;20041;-88
2021/11/27 04:33:17;;;;;;;7.53;3.92;;;5.50;99.90;;;3.15;100.00;97443.38;5027439;28;20136;-89
2021/11/27 04:35:53;;;;;;;6.50;3.72;;;5.50;99.90;;;3.10;100.00;97452.03;5037621;28;20654;-89
2021/11/27 04:38:25;;;;;;;7.25;4.30;;;5.50;99.90;;;3.10;100.00;97452.91;5047188;28;20547;-88
2021/11/27 04:40:53;;;;;;;7.40;3.70;;;5.40;99.90;;;3.10;100.00;97469.00;5047015;28;20051;-88
2021/11/27 04:43:21;;;;;;;9.52;4.75;;;5.40;99.90;;;3.06;100.00;97465.06;5047107;28;20052;-88
2021/11/27 04:45:49;;;;;;;8.50;4.65;;;5.40;99.90;;;3.07;100.00;97473.97;5046723;28;20076;-88
2021/11/27 04:48:18;;;;;;;8.18;4.47;;;5.40;99.90;;;3.02;100.00;97477.28;5047148;28;20045;-88
2021/11/27 04:50:47;;;;;;;10.57;5.60;;;5.40;99.90;;;3.00;100.00;97482.03;5046861;28;20135;-89
2021/11/27 04:53:17;;;;;;;11.18;5.72;;;5.40;99.90;;;2.94;100.00;97481.03;5046934;28;20041;-88
2021/11/27 04:55:45;;;;;;;10.68;5.53;;;5.30;99.90;;;2.97;100.00;97484.31;5063351;28;20505;-88
2021/11/27 04:58:16;;;;;;;11.15;5.68;;;5.30;99.90;;;2.94;100.00;97491.78;5047021;28;20155;-90
2021/11/27 05:00:48;;;;;;;10.13;5.35;;;5.30;99.90;;;2.93;100.00;97498.19;5047311;28;20098;-89
2021/11/27 05:03:20;;;;;;;12.18;6.22;;;5.30;99.90;;;2.96;100.00;97509.56;5047088;28;20048;-93
2021/11/27 05:05:48;;;;;;;10.73;6.30;;;5.20;99.90;;;2.94;100.00;97517.81;5047936;28;20854;-91
2021/11/27 05:08:18;;;;;;;9.10;5.22;;;5.20;99.90;;;2.92;100.00;97514.53;5047213;28;20045;-88
2021/11/27 05:10:45;;;;;;;14.60;5.80;;;5.20;99.90;;;2.88;100.00;97514.09;5047479;28;20052;-88
2021/11/27 05:13:13;;;;;;;10.82;6.05;;;5.20;99.90;;;2.87;100.00;97512.44;5048529;28;20076;-88
2021/11/27 05:15:41;;;;;;;9.05;5.45;;;5.20;99.90;;;2.91;100.00;97519.06;5046501;28;20045;-87
2021/11/27 05:18:14;;;;;;;9.38;5.90;;;5.20;99.90;;;2.89;100.00;97515.78;5046725;28;20512;-88
2021/11/27 05:21:07;;;;;;;9.90;5.97;;;5.20;99.90;;;2.82;100.00;97524.84;5047958;28;20053;-85
2021/11/27 05:23:38;;;;;;;11.98;6.32;;;5.20;99.90;;;2.81;100.00;97518.66;5046798;28;20083;-87
2021/11/27 05:26:24;;;;;;;13.57;7.65;;;5.20;99.90;;;2.80;100.00;97529.59;5047998;28;20055;-86
2021/11/27 05:29:11;;;;;;;13.35;7.93;;;5.20;99.90;;;2.80;100.00;97543.03;5052342;28;20059;-86
2021/11/27 05:32:05;;;;;;;12.43;7.82;;;5.10;99.90;;;2.78;100.00;97545.94;5050136;28;20056;-86
2021/11/27 05:34:37;;;;;;;13.65;7.95;;;5.10;99.90;;;2.80;100.00;97540.34;5047020;28;20472;-86
2021/11/27 05:37:07;;;;;;;13.18;8.52;;;5.10;99.90;;;2.74;100.00;97540.16;5031982;28;20044;-86
2021/11/27 05:39:41;;;;;;;13.55;8.30;;;5.00;99.90;;;2.72;100.00;97544.91;5030666;28;20140;-86
2021/11/27 05:42:08;;;;;;;15.82;8.43;;;5.00;99.90;;;2.70;100.00;97544.31;5045514;28;20086;-86
2021/11/27 05:44:42;;;;;;;15.00;8.65;;;5.00;99.90;;;2.76;100.00;97552.53;5049987;28;20045;-86
2021/11/27 05:47:09;;;;;;;12.90;7.72;;;5.00;99.90;;;2.87;100.00;97557.28;5043123;28;20049;-85
2021/11/27 05:49:38;;;;;;;13.02;7.68;;;5.10;99.90;;;2.91;100.00;97555.81;5030292;28;20140;-85
2021/11/27 05:52:13;;;;;;;11.52;7.07;;;5.10;99.90;;;2.83;100.00;97558.75;5030407;28;20692;-86
2021/11/27 05:54:42;;;;;;;11.50;7.38;;;5.10;99.90;;;2.84;100.00;97571.16;5031497;28;20232;-85
2021/11/27 05:57:09;;;;;;;11.70;6.97;;;5.10;99.90;;;2.82;100.00;97573.19;5031646;28;20049;-85
2021/11/27 05:59:37;;;;;;;13.52;7.60;;;5.10;99.90;;;2.81;100.00;97571.56;5031633;28;20137;-86
2021/11/27 06:02:04;;;;;;;14.80;7.38;;;5.10;99.90;;;2.82;100.00;97579.41;5031433;28;20516;-85
2021/11/27 06:04:31;;;;;;;14.18;7.80;;;5.00;99.90;;;2.89;100.00;97576.69;5031111;28;20033;-87
2021/11/27 06:06:59;;;;;;;11.98;7.32;;;5.10;99.90;;;2.85;100.00;97584.34;5046718;28;20053;-86
2021/11/27 06:09:26;;;;;;;12.05;7.20;;;5.10;99.90;;;2.89;100.00;97585.59;5031541;28;20512;-85
2021/11/27 06:11:56;;;;;;;13.35;7.70;;;5.10;99.90;;;2.91;100.00;97590.75;5031240;28;20049;-86
2021/11/27 06:14:23;;;;;;;13.38;7.72;;;5.10;99.90;;;2.92;100.00;97590.53;5031001;28;20073;-86
2021/11/27 06:16:51;;;;;;;12.50;7.70;;;5.20;99.90;;;2.94;100.00;97584.97;5031077;28;20120;-86
2021/11/27 06:19:18;;;;;;;14.02;8.35;;;5.10;99.90;;;2.93;100.00;97596.72;5031209;28;20049;-87
2021/11/27 06:21:45;;;;;;;14.90;8.38;;;5.10;99.90;;;2.93;100.00;97594.91;5031183;28;20080;-86
2021/11/27 06:24:12;;;;;;;15.85;9.15;;;5.10;99.90;;;2.95;100.00;97600.03;5030971;28;20394;-86
2021/11/27 06:26:40;;;;;;;14.30;8.45;;;5.20;99.90;;;2.98;100.00;97598.81;5029734;28;20049;-85
2021/11/27 06:29:08;;;;;;;13.98;8.05;;;5.20;99.90;;;2.96;100.00;97599.00;5031048;28;20134;-85
2021/11/27 06:31:36;;;;;;;14.80;9.00;;;5.20;99.90;;;2.99;100.00;97606.66;5031018;28;20045;-86
2021/11/27 06:34:03;;;;;;;14.93;8.68;;;5.20;99.90;;;3.01;100.00;97615.34;5029552;28;20091;-86
2021/11/27 06:36:30;;;;;;;14.88;8.50;;;5.20;99.90;;;2.92;100.00;97609.34;5029485;28;20572;-86
2021/11/27 06:38:58;;;;;;;16.88;8.70;;;5.20;99.90;;;2.89;100.00;97617.84;5030160;28;20099;-91
2021/11/27 06:41:25;;;;;;;16.67;8.80;;;5.20;99.90;;;2.91;100.00;97620.28;5038360;28;20104;-87
2021/11/27 06:44:23;;;;;;;15.15;8.57;;;5.20;99.90;;;2.93;100.00;97621.75;5050719;28;20136;-89
2021/11/27 06:46:50;;;;;;;16.05;9.57;;;5.20;99.90;;;2.95;100.00;97629.59;5050753;28;20178;-88
2021/11/27 06:49:17;;;;;;;16.60;9.27;;;5.20;99.90;;;2.94;100.00;97627.94;5050631;28;20056;-89
2021/11/27 06:51:44;;;;;;;16.98;9.75;;;5.20;99.90;;;3.02;100.00;97643.84;5049205;28;20048;-89
2021/11/27 06:54:12;;;;;;;16.88;9.48;;;5.20;99.90;;;3.00;100.00;97637.03;5050395;28;20102;-88
2021/11/27 06:56:39;;;;;;;16.00;9.40;;;5.20;99.90;;;3.00;100.00;97651.28;5050645;28;20128;-88
2021/11/27 06:59:06;;;;;;;19.23;10.13;;;5.20;99.90;;;3.00;100.00;97653.16;5050751;28;20106;-89
2021/11/27 07:01:54;;;;;;;16.77;9.00;;;5.20;99.90;;;2.96;100.00;97655.44;5050765;28;20052;-88
2021/11/27 07:04:40;;;;;;;17.98;8.75;;;5.30;99.90;;;2.98;100.00;97660.59;5050542;28;20064;-88
2021/11/27 07:07:26;;;;;;;14.80;8.85;;;5.40;99.90;;;3.00;100.00;97661.22;5050907;28;20527;-87
2021/11/27 07:10:10;;;;;;;17.67;8.55;;;5.30;99.90;;;2.98;100.00;97672.16;5048825;28;20049;-87
2021/11/27 07:12:48;;;;;;;18.73;9.15;;;5.30;99.90;;;3.03;100.00;97677.75;5065547;28;20517;-86
2021/11/27 07:15:17;;;;;;;17.13;9.40;;;5.30;99.90;;;3.04;100.00;97684.75;5065128;28;20520;-87
2021/11/27 07:17:46;;;;;;;21.35;9.63;;;5.30;99.90;;;3.08;100.00;97691.38;5049744;28;20129;-85
2021/11/27 07:20:14;;;;;;;17.05;8.93;;;5.30;99.90;;;3.08;100.00;97691.38;5048081;28;20094;-87
2021/11/27 07:22:41;;;;;;;16.42;9.43;;;5.30;99.90;;;3.15;100.00;97698.63;5048650;28;20087;-86
2021/11/27 07:25:10;;;;;;;15.95;9.38;;;5.30;99.90;;;3.12;100.00;97703.38;5039409;28;20173;-86
2021/11/27 07:28:00;;;;;;;15.57;9.03;;;5.30;99.90;;;3.16;100.00;97708.34;5014511;28;20060;-86
2021/11/27 07:30:28;;;;;;;17.50;9.82;;;5.30;99.90;;;3.19;100.00;97707.94;5057151;28;20148;-86
2021/11/27 07:32:58;;;;;;;18.67;10.60;;;5.40;99.90;;;3.22;100.00;97718.25;5028936;28;20041;-86
2021/11/27 07:35:25;;;;;;;17.92;9.95;;;5.40;99.90;;;3.25;100.00;97721.34;5049582;28;20084;-86
2021/11/27 07:37:53;;;;;;;18.25;9.98;;;5.40;99.90;;;3.26;100.00;97727.56;5049670;28;20115;-86
2021/11/27 07:40:20;;;;;;;20.40;9.65;;;5.40;99.90;;;3.30;100.00;97713.50;5049932;28;20103;-86
2021/11/27 07:42:48;;;;;;;17.90;9.80;;;5.40;99.90;;;3.30;100.00;97723.44;5048985;28;20049;-86
2021/11/27 07:45:36;;;;;;;20.73;10.40;;;5.40;99.90;;;3.32;100.00;97721.38;5047582;28;20045;-86
2021/11/27 07:48:27;;;;;;;19.10;10.15;;;5.40;99.90;;;3.33;100.00;97731.91;5030069;28;20041;-85
2021/11/27 07:51:13;;;;;;;16.30;9.25;;;5.50;99.90;;;3.33;100.00;97734.59;5029976;28;20160;-86
2021/11/27 07:53:47;;;;;;;21.08;11.07;;;5.50;99.90;;;3.30;100.00;97740.38;5044667;28;20065;-86
2021/11/27 07:56:15;;;;;;;21.13;10.90;;;5.50;99.90;;;3.32;100.00;97740.19;5044541;28;20049;-86
2021/11/27 07:58:43;;;;;;;19.77;10.75;;;5.50;99.90;;;3.35;100.00;97747.00;5049246;28;20086;-86
2021/11/27 08:01:10;;;;;;;21.02;11.02;;;5.50;99.90;;;3.32;100.00;97751.75;5049139;28;20153;-86
2021/11/27 08:03:38;;;;;;;18.27;10.23;;;5.50;99.90;;;3.34;100.00;97759.63;5049267;28;20128;-87
2021/11/27 08:06:06;;;;;;;22.52;12.02;;;5.50;99.90;;;3.37;100.00;97759.22;5047727;28;20075;-86
2021/11/27 08:08:33;;;;;;;21.67;10.98;;;5.50;99.90;;;3.42;100.00;97763.97;5048990;28;20065;-88
2021/11/27 08:11:00;;;;;;;22.00;11.75;;;5.50;99.90;;;3.47;100.00;97765.00;5048234;28;20142;-94
2021/11/27 08:13:47;;;;;;;;;;;;;;;;;;;;;
2021/11/27 08:16:40;;;;;;;23.88;11.25;;;5.60;99.90;;;3.51;100.00;97771.59;5050245;28;20165;-87
2021/11/27 08:19:09;;;;;;;25.95;13.82;;;5.60;99.90;;;3.53;100.00;97777.59;5049043;28;20103;-86
2021/11/27 08:21:36;;;;;;;21.75;10.93;;;5.60;99.90;;;3.52;100.00;97772.44;5048947;28;20102;-86
2021/11/27 08:24:04;;;;;;;21.60;10.90;;;5.60;99.90;;;3.53;100.00;97780.28;5048620;28;20068;-84
2021/11/27 08:26:32;;;;;;;22.02;11.98;;;5.60;99.90;;;3.60;100.00;97780.31;5048819;28;20090;-85
2021/11/27 08:28:59;;;;;;;22.13;11.23;;;5.60;99.90;;;3.67;100.00;97780.28;5048887;28;20145;-87
2021/11/27 08:31:26;;;;;;;23.08;11.55;;;5.70;99.90;;;3.71;100.00;97793.13;5047250;28;20453;-87
2021/11/27 08:33:54;;;;;;;23.48;11.43;;;5.70;99.90;;;3.71;100.00;97801.19;5048502;28;20569;-85
2021/11/27 08:36:23;;;;;;;21.00;11.70;;;5.70;99.90;;;3.78;100.00;97798.47;5048321;28;20455;-86
2021/11/27 08:38:50;;;;;;;25.00;12.65;;;5.80;99.90;;;3.82;100.00;97802.41;5048688;28;20599;-87
2021/11/27 08:41:18;;;;;;;19.70;10.93;;;5.80;99.90;;;3.77;100.00;97799.53;5047156;28;20037;-85
2021/11/27 08:43:45;;;;;;;23.27;12.45;;;5.80;99.90;;;3.71;100.00;97798.50;5047266;28;20126;-86
2021/11/27 08:46:13;;;;;;;24.60;12.40;;;5.80;99.90;;;3.68;100.00;97803.47;5048216;28;20065;-85
2021/11/27 08:48:40;;;;;;;21.38;11.45;;;5.80;99.90;;;3.74;100.00;97808.00;5048494;28;20219;-86
2021/11/27 08:51:11;;;;;;;20.90;11.60;;;5.80;99.90;;;3.78;100.00;97817.31;5048264;28;20060;-86
2021/11/27 08:53:41;;;;;;;22.10;12.13;;;5.80;99.90;;;3.78;100.00;97820.00;5048311;28;20899;-86
2021/11/27 08:56:09;;;;;;;23.67;12.13;;;5.80;99.90;;;3.78;100.00;97821.88;5048210;28;20084;-86
2021/11/27 08:58:38;;;;;;;24.08;11.60;;;5.80;99.90;;;3.84;100.00;97829.09;5048244;28;20114;-86
2021/11/27 09:01:08;;;;;;;20.92;11.40;;;5.90;99.90;;;3.83;100.00;97833.66;5048312;28;20115;-85
2021/11/27 09:03:36;;;;;;;27.25;13.25;;;5.90;99.90;;;3.85;100.00;97844.22;5048055;28;20045;-87
2021/11/27 09:06:03;;;;;;;22.20;12.27;;;5.90;99.90;;;3.85;100.00;97841.53;5047899;28;20056;-86
2021/11/27 09:08:31;;;;;;;23.92;12.43;;;5.90;99.90;;;3.86;100.00;97841.31;5047884;28;20037;-86
2021/11/27 09:11:00;;;;;;;25.42;12.98;;;5.90;99.90;;;3.86;100.00;97838.63;5048264;28;20037;-86
2021/11/27 09:13:29;;;;;;;32.25;13.50;;;5.90;99.90;;;3.87;100.00;97844.84;5046741;28;20095;-87
2021/11/27 09:15:56;;;;;;;24.60;14.32;;;5.90;99.90;;;3.88;100.00;97850.03;5047920;28;20486;-87
2021/11/27 09:18:23;;;;;;;28.23;13.57;;;5.90;99.90;;;3.96;100.00;97845.44;5048123;28;20037;-86
2021/11/27 09:20:51;;;;;;;34.53;13.85;;;5.90;99.90;;;4.00;100.00;97844.00;5048039;28;20045;-86
2021/11/27 09:23:18;;;;;;;30.45;13.50;;;5.80;99.90;;;4.07;100.00;97847.50;5048118;28;20123;-87
2021/11/27 09:25:45;;;;;;;27.30;13.38;;;5.90;99.90;;;4.15;100.00;97841.94;5047862;28;20476;-86
2021/11/27 09:28:14;;;;;;;29.17;13.02;;;5.90;99.90;;;4.19;100.00;97853.94;5046735;28;20528;-85
2021/11/27 09:30:41;;;;;;;30.15;12.82;;;6.00;99.90;;;4.16;100.00;97851.66;5038480;28;20889;-86
2021/11/27 09:33:09;;;;;;;29.48;13.35;;;6.00;99.90;;;4.24;100.00;97856.78;5030300;28;20076;-85
2021/11/27 09:35:36;;;;;;;27.38;12.52;;;6.00;99.90;;;4.41;100.00;97867.13;5047764;28;20472;-85
2021/11/27 09:38:04;;;;;;;26.15;12.70;;;6.10;99.90;;;4.39;100.00;97874.59;5047744;28;20472;-87
2021/11/27 09:40:53;;;;;;;32.08;12.73;;;6.20;99.90;;;4.38;100.00;97872.94;5042437;28;20058;-89
2021/11/27 09:43:48;;;;;;;29.08;12.77;;;6.20;99.90;;;4.38;100.00;97873.78;5039724;28;20068;-86
2021/11/27 09:46:19;;;;;;;24.92;12.23;;;6.20;99.90;;;4.39;100.00;97885.38;5052003;28;20042;-87
2021/11/27 09:48:51;;;;;;;;;;;6.30;99.90;;;4.37;100.00;97884.75;5037501;28;20127;-86
2021/11/27 09:51:19;;;;;;;28.80;11.93;;;6.30;99.90;;;4.40;100.00;97892.38;5043157;28;19964;-89
2021/11/27 09:53:48;;;;;;;24.20;11.18;;;6.30;99.90;;;4.44;100.00;97899.03;5026501;28;20060;-90
2021/11/27 09:56:20;;;;;;;24.92;11.80;;;6.40;99.90;;;4.46;100.00;97900.47;5028381;28;20124;-88
2021/11/27 10:27:19;;;;;;;25.35;10.25;;;6.50;99.90;;;4.58;100.00;97916.00;5046832;28;20053;-90
2021/11/27 10:30:05;;;;;;;19.40;8.85;;;6.50;99.90;;;4.58;100.00;97911.44;5032610;28;20044;-88
2021/11/27 10:32:39;;;;;;;25.38;9.40;;;6.50;99.90;;;4.53;100.00;97927.38;5025366;28;20049;-90
2021/11/27 10:35:10;;;;;;;19.13;9.07;;;6.50;99.90;;;4.51;100.00;97916.00;5044951;28;20045;-90
2021/11/27 10:37:42;;;;;;;21.52;8.93;;;6.50;99.90;;;4.43;100.00;97919.72;5038471;28;20069;-91
2021/11/27 10:40:11;;;;;;;;;;;6.50;99.90;;;4.29;100.00;97928.88;5045237;28;20060;-92
2021/11/27 10:42:45;;;;;;;23.20;8.75;;;6.50;99.90;;;4.21;100.00;97921.84;5036793;28;19925;-92
2021/11/27 10:45:20;;;;;;;27.17;9.65;;;6.50;99.90;;;4.26;100.00;97923.91;5044601;28;20056;-94
2021/11/27 10:47:49;;;;;;;22.48;9.27;;;6.50;99.90;;;4.28;100.00;97932.59;5041874;28;20638;-92
2021/11/27 10:50:20;;;;;;;23.73;8.88;;;6.40;99.90;;;4.36;100.00;97934.25;5051204;28;20428;-93
2021/11/27 10:52:50;;;;;;;28.67;9.23;;;6.50;99.90;;;4.41;100.00;97937.16;5050919;28;20040;-91
2021/11/27 10:55:22;;;;;;;16.25;7.72;;;6.50;99.90;;;4.46;100.00;97922.00;5042247;28;20063;-91
2021/11/27 10:57:55;;;;;;;21.48;9.23;;;6.50;99.90;;;4.55;100.00;97927.16;5032495;28;20049;-90
2021/11/27 11:00:35;;;;;;;24.10;8.55;;;6.50;99.90;;;4.49;100.00;97929.69;5036115;28;20553;-92
2021/11/27 11:03:04;;;;;;;25.45;8.85;;;6.50;99.70;;;4.39;100.00;97923.06;5042912;28;20037;-93
2021/11/27 11:05:35;;;;;;;20.40;9.18;;;6.50;99.90;;;4.35;100.00;97922.66;5048679;28;20055;-91